Ventura, CA (93009)

11:09 PM PST on February 22, 2017 (GMT -0800)
MVTUC1 | | Change Station

Elev 226 ft 34.27 °N, 119.21 °W | Updated 3 minutes ago

Clear
Clear
52.0 °F
Feels Like 52.0 °F
N
-
Wind Variable Wind from NW
Gusts 2.0 mph

Today
High -- | Low -- °F
--% Chance of Precip.
Yesterday
High -- | Low -- °F
Precip. -- in
Pressure 30.08 in
Visibility 8.0 miles
Clouds Clear
Dew Point 40.0 °F
Humidity 62%
Rainfall 0.00 in
Snow Depth Not available.
6:34 AM 5:47 PM
Waning Crescent, 12% visible
METAR KOXR 230651Z AUTO 30007KT 8SM CLR 12/03 A3008 RMK AO2 SLP185 T01170033 $
Pressure 30.08 in
Visibility 8.0 miles
Clouds Clear
Dew Point 40.0 °F
Humidity 62%
Rainfall 0.00 in
Snow Depth Not available.
6:34 AM 5:47 PM
Waning Crescent, 12% visible
METAR KOXR 230651Z AUTO 30007KT 8SM CLR 12/03 A3008 RMK AO2 SLP185 T01170033 $

Get Your Daily Forecast Email!

Thanks for signing up!

Be on the lookout for a verification email in your inbox.

You'll start receiving the daily forecast at 8 AM.

×

10-Day Weather Forecast

Almanac

Astronomy

Feb. 22, 2017 Rise Set
Actual Time
Civil Twilight
Nautical Twilight
Astronomical Twilight
Moon
Length of Visible Light
Length of Day
Tomorrow will be .
, % of the Moon is Illuminated

Today's Extremes

State Highs State Lows

Community

WunderPhotos

Upload Photos

1,962,540 photos uploaded!

WunderBlog® & News

Nearby

Air Quality

  Air Quality AQ Index Pollutant
Not available.

Snow Depth

Station Depth Elevation

Earthquake Activity

City Distance Mag. Time & Date
Minimum magnitude displayed is 2.5.

Coastal Water Temperatures

Place Temperature

Stations

Nearby Weather Stations

Station Location Temp. Windchill Dew Point Humidity Wind Precip. Elev Updated Type
                   

Watches & Warnings

High Surf Advisory
Issued: 7:02 PM PST Feb. 22, 2017 – National Weather Service

... High surf advisory remains in effect until 9 PM PST Thursday...

* surf... surf of 6 to 10 feet with local sets up to 12 feet will
continue across Los Angeles and Ventura County beaches through late
Thursday. The largest surf will likely occur on west facing
beaches such as Ventura and el porto.

* Impacts... large waves and strong rip currents will increase
the risk of ocean drowning for swimmers and surfers. Large
breaking waves can cause injury... wash people off beaches and
rocks... and capsize small boats nearshore.

Precautionary/preparedness actions...

A high surf advisory means that high surf will affect beaches in
the advisory area... producing localized beach erosion and
dangerous swimming conditions.



Hall